createdAt,value
2023-05-01T00:00:06.965Z,100171.38
2023-05-01T00:00:38.452Z,100168.13
2023-05-01T00:01:09.871Z,100166.25
2023-05-01T00:01:41.252Z,100166.25
2023-05-01T00:02:12.714Z,100160.81
2023-05-01T00:02:44.359Z,100166.25
2023-05-01T00:03:15.886Z,100166.53
2023-05-01T00:03:47.541Z,100164.91
2023-05-01T00:04:19.350Z,100166.50
2023-05-01T00:04:51.014Z,100167.28
2023-05-01T00:05:25.226Z,100170.81
2023-05-01T00:05:56.826Z,100163.19
2023-05-01T00:06:28.356Z,100165.34
2023-05-01T00:06:59.864Z,100165.06
2023-05-01T00:07:31.237Z,100168.06
2023-05-01T00:08:02.712Z,100170.75
2023-05-01T00:08:34.146Z,100165.00
2023-05-01T00:09:05.572Z,100166.88
2023-05-01T00:09:40.044Z,100163.59
2023-05-01T00:10:11.434Z,100164.06
2023-05-01T00:10:42.862Z,100161.56
2023-05-01T00:11:14.324Z,100165.91
2023-05-01T00:11:45.723Z,100163.13
2023-05-01T00:12:17.111Z,100163.41
2023-05-01T00:12:48.538Z,100166.34
2023-05-01T00:13:19.976Z,100163.06
2023-05-01T00:13:51.357Z,100154.03
2023-05-01T00:14:22.829Z,100155.91
2023-05-01T00:14:54.301Z,100153.47
2023-05-01T00:15:25.716Z,100146.66
2023-05-01T00:15:57.200Z,100150.72
2023-05-01T00:16:28.850Z,100149.63
2023-05-01T00:17:00.390Z,100154.22
2023-05-01T00:17:34.104Z,100153.34
2023-05-01T00:18:11.443Z,100148.16
2023-05-01T00:18:42.902Z,100155.72
2023-05-01T00:19:14.518Z,100149.50
2023-05-01T00:19:45.929Z,100143.25
2023-05-01T00:20:20.138Z,100151.69
2023-05-01T00:20:51.615Z,100148.16
2023-05-01T00:21:23.099Z,100147.81
2023-05-01T00:21:54.559Z,100144.06
2023-05-01T00:22:26.002Z,100143.81
2023-05-01T00:22:57.417Z,100141.03
2023-05-01T00:23:28.821Z,100143.97
2023-05-01T00:24:00.276Z,100133.41
2023-05-01T00:24:31.664Z,100129.34
2023-05-01T00:25:06.050Z,100136.09
2023-05-01T00:25:37.551Z,100137.16
2023-05-01T00:26:08.916Z,100132.84
2023-05-01T00:26:40.371Z,100133.94
2023-05-01T00:27:11.868Z,100136.13
2023-05-01T00:27:43.309Z,100139.56
2023-05-01T00:28:14.768Z,100135.53
2023-05-01T00:28:46.178Z,100131.19
2023-05-01T00:29:17.688Z,100131.41
2023-05-01T00:29:49.208Z,100136.00
2023-05-01T00:30:20.685Z,100135.13
2023-05-01T00:30:52.211Z,100134.88
2023-05-01T00:31:23.769Z,100133.00
2023-05-01T00:31:55.340Z,100131.88
2023-05-01T00:32:26.931Z,100132.38
2023-05-01T00:32:58.498Z,100137.50
2023-05-01T00:33:29.962Z,100129.88
2023-05-01T00:34:01.429Z,100129.88
2023-05-01T00:34:32.827Z,100127.84
2023-05-01T00:35:04.312Z,100127.09
2023-05-01T00:35:35.822Z,100124.94
2023-05-01T00:36:07.294Z,100126.31
2023-05-01T00:36:38.784Z,100125.50
2023-05-01T00:37:12.807Z,100123.59
2023-05-01T00:37:44.256Z,100123.34
2023-05-01T00:38:15.678Z,100120.38
2023-05-01T00:38:47.149Z,100120.91
2023-05-01T00:39:18.606Z,100116.72
2023-05-01T00:39:50.041Z,100120.59
2023-05-01T00:40:21.500Z,100116.59
2023-05-01T00:40:52.932Z,100119.91
2023-05-01T00:41:24.333Z,100111.84
2023-05-01T00:41:55.933Z,100120.59
2023-05-01T00:42:27.613Z,100113.88
2023-05-01T00:42:59.006Z,100113.66
2023-05-01T00:43:30.534Z,100117.41
2023-05-01T00:44:01.938Z,100118.00
2023-05-01T00:44:33.380Z,100118.59
2023-05-01T00:45:04.835Z,100119.72
2023-05-01T00:45:36.277Z,100119.47
2023-05-01T00:46:07.807Z,100111.63
2023-05-01T00:46:39.326Z,100112.50
2023-05-01T00:47:10.816Z,100113.56
2023-05-01T00:47:42.380Z,100115.50
2023-05-01T00:48:14.038Z,100112.25
2023-05-01T00:48:45.441Z,100114.47
2023-05-01T00:49:16.915Z,100109.56
2023-05-01T00:49:48.321Z,100112.78
2023-05-01T00:50:19.790Z,100110.63
2023-05-01T00:50:51.203Z,100107.66
2023-05-01T00:51:22.693Z,100108.44
2023-05-01T00:51:54.155Z,100114.41
2023-05-01T00:52:25.627Z,100105.47
2023-05-01T00:52:57.182Z,100107.38
2023-05-01T00:53:28.616Z,100106.50
2023-05-01T00:54:00.037Z,100108.69
2023-05-01T00:54:31.440Z,100103.03
2023-05-01T00:55:04.009Z,100103.34
2023-05-01T00:55:35.582Z,100101.91
2023-05-01T00:56:07.017Z,100102.47
2023-05-01T00:56:38.455Z,100098.66
2023-05-01T00:57:09.893Z,100105.47
2023-05-01T00:57:41.350Z,100107.38
2023-05-01T00:58:12.837Z,100099.22
2023-05-01T00:58:44.234Z,100100.84
2023-05-01T00:59:15.660Z,100099.22
2023-05-01T00:59:47.107Z,100100.59
2023-05-01T01:00:18.533Z,100097.34
2023-05-01T01:00:49.977Z,100101.41
2023-05-01T01:01:21.474Z,100098.69
2023-05-01T01:01:55.656Z,100093.56
2023-05-01T01:02:27.894Z,100089.75
2023-05-01T01:02:59.355Z,100098.66
2023-05-01T01:03:30.835Z,100095.16
2023-05-01T01:04:02.338Z,100091.13
2023-05-01T01:04:33.823Z,100096.25
2023-05-01T01:05:08.144Z,100092.47
2023-05-01T01:05:39.612Z,100097.59
2023-05-01T01:06:11.183Z,100089.19
2023-05-01T01:06:42.808Z,100094.09
2023-05-01T01:07:14.366Z,100099.53
2023-05-01T01:07:45.777Z,100088.97
2023-05-01T01:08:17.215Z,100093.88
2023-05-01T01:08:48.635Z,100091.38
2023-05-01T01:09:20.064Z,100090.00
2023-05-01T01:09:51.484Z,100088.66
2023-05-01T01:10:22.908Z,100088.41
2023-05-01T01:10:54.316Z,100083.25
2023-05-01T01:11:25.787Z,100076.75
2023-05-01T01:11:57.273Z,100080.78
2023-05-01T01:12:28.681Z,100085.13
2023-05-01T01:13:03.172Z,100077.84
2023-05-01T01:13:34.579Z,100076.72
2023-05-01T01:14:06.102Z,100078.34
2023-05-01T01:14:37.547Z,100085.16
2023-05-01T01:15:08.993Z,100077.88
2023-05-01T01:15:40.543Z,100070.81
2023-05-01T01:16:12.062Z,100072.19
2023-05-01T01:16:43.525Z,100073.88
2023-05-01T01:17:16.810Z,100074.91
2023-05-01T01:17:48.365Z,100067.88
2023-05-01T01:18:19.830Z,100076.81
2023-05-01T01:18:51.241Z,100069.00
2023-05-01T01:19:22.697Z,100073.88
2023-05-01T01:19:54.322Z,100070.91
2023-05-01T01:20:25.935Z,100072.28
2023-05-01T01:20:57.377Z,100076.09
2023-05-01T01:21:28.797Z,100077.69
2023-05-01T01:22:00.189Z,100066.00
2023-05-01T01:22:31.587Z,100072.25
2023-05-01T01:23:03.040Z,100073.34
2023-05-01T01:23:34.564Z,100072.00
2023-05-01T01:24:05.985Z,100072.31
2023-05-01T01:24:37.409Z,100070.38
2023-05-01T01:25:08.855Z,100065.47
2023-05-01T01:25:40.236Z,100066.28
2023-05-01T01:26:11.631Z,100066.03
2023-05-01T01:27:17.083Z,100073.91
2023-05-01T01:27:48.282Z,100067.09
2023-05-01T01:28:19.468Z,100070.63
2023-05-01T01:28:50.701Z,100072.00
2023-05-01T01:29:22.209Z,100074.19
2023-05-01T01:29:53.791Z,100072.31
2023-05-01T01:30:25.348Z,100061.72
2023-05-01T01:30:56.924Z,100068.50
2023-05-01T01:31:28.485Z,100070.16
2023-05-01T01:31:59.905Z,100059.81
2023-05-01T01:32:31.331Z,100064.16
2023-05-01T01:33:02.799Z,100061.19
2023-05-01T01:33:34.308Z,100059.28
2023-05-01T01:34:05.744Z,100065.50
2023-05-01T01:34:37.164Z,100063.09
2023-05-01T01:35:08.628Z,100062.56
2023-05-01T01:35:40.028Z,100070.69
2023-05-01T01:36:11.476Z,100064.72
2023-05-01T01:36:42.916Z,100059.56
2023-05-01T01:37:14.292Z,100060.38
2023-05-01T01:37:45.705Z,100065.28
2023-05-01T01:38:17.138Z,100065.00
2023-05-01T01:38:48.589Z,100060.94
2023-05-01T01:39:19.985Z,100058.25
2023-05-01T01:39:51.383Z,100060.13
2023-05-01T01:40:22.865Z,100059.03
2023-05-01T01:40:54.460Z,100062.09
2023-05-01T01:41:25.857Z,100058.81
2023-05-01T01:41:57.280Z,100058.25
2023-05-01T01:42:28.758Z,100060.09
2023-05-01T01:43:00.157Z,100056.31
2023-05-01T01:43:31.648Z,100058.19
2023-05-01T01:44:03.068Z,100062.81
2023-05-01T01:44:34.532Z,100059.50
2023-05-01T01:45:05.974Z,100058.13
2023-05-01T01:45:37.526Z,100052.66
2023-05-01T01:46:08.933Z,100043.47
2023-05-01T01:46:40.400Z,100046.72
2023-05-01T01:47:11.882Z,100048.63
2023-05-01T01:47:43.346Z,100053.25
2023-05-01T01:48:14.796Z,100044.25
2023-05-01T01:48:46.209Z,100042.66
2023-05-01T01:49:18.997Z,100047.78
2023-05-01T01:49:51.615Z,100044.53
2023-05-01T01:50:23.040Z,100048.34
2023-05-01T01:50:54.515Z,100046.44
2023-05-01T01:51:25.926Z,100043.47
2023-05-01T01:51:57.318Z,100039.16
2023-05-01T01:52:28.743Z,100040.00
2023-05-01T01:53:00.153Z,100048.69
2023-05-01T01:53:31.566Z,100039.44
2023-05-01T01:54:03.000Z,100039.75
2023-05-01T01:54:34.413Z,100043.56
2023-05-01T01:55:05.845Z,100038.41
2023-05-01T01:55:37.275Z,100037.03
2023-05-01T01:56:08.716Z,100037.00
2023-05-01T01:56:40.139Z,100042.72
2023-05-01T01:57:11.539Z,100035.97
2023-05-01T01:57:42.964Z,100039.22
2023-05-01T01:58:14.450Z,100032.75
2023-05-01T01:58:45.856Z,100041.13
2023-05-01T01:59:17.280Z,100037.63
2023-05-01T01:59:48.690Z,100032.47
2023-05-01T02:00:20.114Z,100034.34
2023-05-01T02:00:51.536Z,100034.59
2023-05-01T02:01:23.056Z,100034.59
2023-05-01T02:01:54.545Z,100030.78
2023-05-01T02:02:25.976Z,100035.22
2023-05-01T02:02:57.561Z,100031.66
2023-05-01T02:03:29.193Z,100029.72
2023-05-01T02:04:00.815Z,100023.25
2023-05-01T02:04:32.373Z,100027.88
2023-05-01T02:05:03.895Z,100022.72
2023-05-01T02:05:35.268Z,100029.78
2023-05-01T02:06:06.787Z,100028.09
2023-05-01T02:06:38.311Z,100021.63
2023-05-01T02:07:09.795Z,100020.56
2023-05-01T02:07:41.235Z,100029.78
2023-05-01T02:08:12.687Z,100031.41
2023-05-01T02:08:44.186Z,100027.88
2023-05-01T02:09:18.268Z,100024.34
2023-05-01T02:09:49.676Z,100024.06
2023-05-01T02:10:21.185Z,100028.41
2023-05-01T02:10:52.639Z,100022.72
2023-05-01T02:11:24.109Z,100019.19
2023-05-01T02:11:55.545Z,100024.59
2023-05-01T02:12:26.975Z,100016.72
2023-05-01T02:12:58.415Z,100020.81
2023-05-01T02:13:29.869Z,100022.19
2023-05-01T02:14:01.283Z,100022.19
2023-05-01T02:14:32.716Z,100018.66
2023-05-01T02:15:04.149Z,100018.38
2023-05-01T02:15:35.589Z,100018.38
2023-05-01T02:16:07.027Z,100027.88
2023-05-01T02:16:38.556Z,100026.81
2023-05-01T02:17:10.085Z,100017.56
2023-05-01T02:17:41.539Z,100014.31
2023-05-01T02:18:12.991Z,100012.94
2023-05-01T02:18:44.526Z,100013.22
2023-05-01T02:19:15.931Z,100018.94
2023-05-01T02:19:47.331Z,100018.66
2023-05-01T02:20:18.734Z,100012.69
2023-05-01T02:20:50.141Z,100013.22
2023-05-01T02:21:21.548Z,100014.31
2023-05-01T02:21:52.996Z,100007.78
2023-05-01T02:22:24.484Z,100012.06
2023-05-01T02:22:55.863Z,100011.56
2023-05-01T02:23:27.344Z,100009.16
2023-05-01T02:23:58.768Z,100010.50
2023-05-01T02:24:30.158Z,100014.84
2023-05-01T02:25:01.560Z,100006.97
2023-05-01T02:25:32.976Z,100005.88
2023-05-01T02:26:04.387Z,100011.59
2023-05-01T02:26:35.894Z,100005.91
2023-05-01T02:27:07.316Z,100012.69
2023-05-01T02:27:38.696Z,100010.25
2023-05-01T02:28:10.160Z,100011.34
2023-05-01T02:28:41.608Z,100012.13
2023-05-01T02:29:13.114Z,100013.78
2023-05-01T02:29:44.541Z,100002.09
2023-05-01T02:30:15.992Z,100002.06
2023-05-01T02:30:47.443Z,99998.53
2023-05-01T02:31:18.924Z,100003.97
2023-05-01T02:31:50.874Z,100009.16
2023-05-01T02:32:22.383Z,100004.00
2023-05-01T02:32:54.058Z,100005.63
2023-05-01T02:33:25.492Z,100001.28
2023-05-01T02:33:56.982Z,100000.19
2023-05-01T02:34:28.431Z,99996.94
2023-05-01T02:34:59.794Z,100004.28
2023-05-01T02:35:31.195Z,99996.94
2023-05-01T02:36:02.602Z,99997.47
2023-05-01T02:36:34.003Z,99996.13
2023-05-01T02:37:05.437Z,100004.00
2023-05-01T02:37:36.835Z,100004.78
2023-05-01T02:38:08.256Z,99995.84
2023-05-01T02:38:39.692Z,99996.41
2023-05-01T02:39:11.198Z,99992.06
2023-05-01T02:39:42.626Z,99993.41
2023-05-01T02:40:14.071Z,99998.28
2023-05-01T02:40:45.555Z,99992.59
2023-05-01T02:41:17.003Z,99992.59
2023-05-01T02:41:48.454Z,99994.50
2023-05-01T02:42:19.930Z,99998.56
2023-05-01T02:42:51.345Z,99990.69
2023-05-01T02:43:22.819Z,99986.34
2023-05-01T02:43:54.226Z,99998.28
2023-05-01T02:44:25.664Z,99986.06
2023-05-01T02:44:57.092Z,99983.63
2023-05-01T02:45:28.507Z,99987.69
2023-05-01T02:46:00.006Z,99988.50
2023-05-01T02:46:31.538Z,99988.78
2023-05-01T02:47:05.809Z,99984.44
2023-05-01T02:47:37.361Z,99983.63
2023-05-01T02:48:08.931Z,99981.19
2023-05-01T02:48:40.348Z,99984.44
2023-05-01T02:49:11.765Z,99979.00
2023-05-01T02:49:43.259Z,99982.53
2023-05-01T02:50:14.657Z,99973.03
2023-05-01T02:50:46.257Z,99976.28
2023-05-01T02:51:17.646Z,99983.09
2023-05-01T02:51:49.028Z,99976.84
2023-05-01T02:52:20.522Z,99981.94
2023-05-01T02:52:51.973Z,99974.63
2023-05-01T02:53:23.610Z,99974.06
2023-05-01T02:53:55.081Z,99977.28
2023-05-01T02:54:26.530Z,99974.03
2023-05-01T02:54:57.918Z,99973.78
2023-05-01T02:55:29.423Z,99974.88
2023-05-01T02:56:00.865Z,99972.41
2023-05-01T02:56:32.284Z,99973.25
2023-05-01T02:57:03.655Z,99969.44
2023-05-01T02:57:35.108Z,99980.31
2023-05-01T02:58:06.553Z,99972.44
2023-05-01T02:58:37.967Z,99972.44
2023-05-01T02:59:09.441Z,99973.00
2023-05-01T02:59:40.849Z,99971.91
2023-05-01T03:00:12.318Z,99973.00
2023-05-01T03:00:43.818Z,99970.81
2023-05-01T03:01:15.330Z,99973.25
2023-05-01T03:01:46.835Z,99965.97
2023-05-01T03:02:18.270Z,99970.28
2023-05-01T03:02:49.703Z,99974.63
2023-05-01T03:03:21.226Z,99972.50
2023-05-01T03:03:52.824Z,99970.59
2023-05-01T03:04:24.388Z,99970.59
2023-05-01T03:04:55.901Z,99966.53
2023-05-01T03:05:27.363Z,99967.06
2023-05-01T03:05:58.793Z,99972.22
2023-05-01T03:06:30.333Z,99963.28
2023-05-01T03:07:01.752Z,99964.91
2023-05-01T03:07:33.213Z,99966.53
2023-05-01T03:08:04.633Z,99962.19
2023-05-01T03:08:36.057Z,99961.09
2023-05-01T03:09:07.445Z,99960.81
2023-05-01T03:09:38.924Z,99963.25
2023-05-01T03:10:10.315Z,99968.97
2023-05-01T03:10:41.760Z,99963.28
2023-05-01T03:11:13.181Z,99962.47
2023-05-01T03:11:44.701Z,99961.66
2023-05-01T03:12:16.125Z,99961.38
2023-05-01T03:12:47.562Z,99966.25
2023-05-01T03:13:18.949Z,99969.25
2023-05-01T03:13:50.408Z,99961.66
2023-05-01T03:14:21.862Z,99964.34
2023-05-01T03:14:53.281Z,99960.56
2023-05-01T03:15:24.660Z,99963.28
2023-05-01T03:15:56.136Z,99962.47
2023-05-01T03:16:27.676Z,99958.66
2023-05-01T03:16:59.141Z,99958.66
2023-05-01T03:17:30.575Z,99955.94
2023-05-01T03:18:02.078Z,99955.66
2023-05-01T03:18:33.611Z,99957.03
2023-05-01T03:19:05.040Z,99955.41
2023-05-01T03:19:36.471Z,99952.94
2023-05-01T03:20:07.867Z,99957.28
2023-05-01T03:20:39.283Z,99949.16
2023-05-01T03:21:10.691Z,99952.13
2023-05-01T03:21:42.143Z,99947.25
2023-05-01T03:22:13.596Z,99948.88
2023-05-01T03:22:45.041Z,99951.00
2023-05-01T03:23:16.498Z,99955.88
2023-05-01T03:23:47.978Z,99953.44
2023-05-01T03:24:19.404Z,99945.00
2023-05-01T03:24:50.800Z,99952.59
2023-05-01T03:25:22.209Z,99953.94
2023-05-01T03:25:53.640Z,99949.06
2023-05-01T03:26:25.132Z,99951.53
2023-05-01T03:26:56.521Z,99956.38
2023-05-01T03:27:27.942Z,99950.97
2023-05-01T03:27:59.396Z,99953.13
2023-05-01T03:28:30.803Z,99955.03
2023-05-01T03:29:02.174Z,99949.06
2023-05-01T03:29:33.603Z,99951.53
2023-05-01T03:30:05.041Z,99944.75
2023-05-01T03:30:36.487Z,99953.16
2023-05-01T03:31:07.951Z,99946.94
2023-05-01T03:31:39.406Z,99947.22
2023-05-01T03:32:10.885Z,99950.19
2023-05-01T03:32:42.362Z,99952.94
2023-05-01T03:33:13.944Z,99950.50
2023-05-01T03:33:45.425Z,99946.97
2023-05-01T03:34:16.847Z,99936.13
2023-05-01T03:34:48.260Z,99941.28
2023-05-01T03:35:19.750Z,99939.91
2023-05-01T03:35:51.248Z,99940.72
2023-05-01T03:36:22.701Z,99939.66
2023-05-01T03:36:54.077Z,99938.03
2023-05-01T03:37:25.822Z,99943.19
2023-05-01T03:37:57.265Z,99937.75
2023-05-01T03:38:28.796Z,99944.00
2023-05-01T03:39:00.263Z,99937.75
2023-05-01T03:39:31.700Z,99945.34
2023-05-01T03:40:03.147Z,99935.31
2023-05-01T03:40:34.584Z,99936.41
2023-05-01T03:41:06.049Z,99939.09
2023-05-01T03:41:37.461Z,99942.09
2023-05-01T03:42:08.909Z,99937.75
2023-05-01T03:42:40.354Z,99936.94
2023-05-01T03:43:11.782Z,99932.88
2023-05-01T03:43:43.262Z,99933.94
2023-05-01T03:44:14.696Z,99938.84
2023-05-01T03:44:46.155Z,99937.75
2023-05-01T03:45:17.560Z,99933.69
2023-05-01T03:45:49.133Z,99939.66
2023-05-01T03:46:20.644Z,99928.53
2023-05-01T03:46:52.085Z,99927.72
2023-05-01T03:47:23.631Z,99931.22
2023-05-01T03:47:55.131Z,99931.78
2023-05-01T03:48:26.568Z,99929.88
2023-05-01T03:48:58.158Z,99927.72
2023-05-01T03:49:29.603Z,99930.16
2023-05-01T03:50:01.015Z,99935.31
2023-05-01T03:50:32.522Z,99931.78
2023-05-01T03:51:04.010Z,99925.81
2023-05-01T03:51:35.473Z,99925.25
2023-05-01T03:52:06.927Z,99926.34
2023-05-01T03:52:38.418Z,99932.31
2023-05-01T03:53:09.837Z,99933.13
2023-05-01T03:53:41.348Z,99927.16
2023-05-01T03:54:12.821Z,99929.34
2023-05-01T03:54:44.321Z,99932.06
2023-05-01T03:55:15.754Z,99929.34
2023-05-01T03:55:47.174Z,99921.47
2023-05-01T03:56:18.570Z,99923.09
2023-05-01T03:56:50.026Z,99926.34
2023-05-01T03:57:21.552Z,99921.72
2023-05-01T03:57:53.079Z,99925.25
2023-05-01T03:58:24.571Z,99932.59
2023-05-01T03:58:56.029Z,99921.47
2023-05-01T03:59:27.535Z,99923.63
2023-05-01T03:59:59.221Z,99920.91
2023-05-01T04:00:30.933Z,99921.19
2023-05-01T04:01:02.572Z,99919.56
2023-05-01T04:01:34.004Z,99926.34
2023-05-01T04:02:05.502Z,99916.81
2023-05-01T04:02:37.168Z,99927.44
2023-05-01T04:03:08.791Z,99919.56
2023-05-01T04:03:40.534Z,99913.81
2023-05-01T04:04:12.167Z,99912.75
2023-05-01T04:04:43.911Z,99917.63
2023-05-01T04:05:15.465Z,99916.00
2023-05-01T04:05:46.967Z,99920.88
2023-05-01T04:06:18.418Z,99915.19
2023-05-01T04:06:49.942Z,99918.75
2023-05-01T04:07:21.597Z,99917.63
2023-05-01T04:07:53.097Z,99914.91
2023-05-01T04:08:24.581Z,99911.66
2023-05-01T04:08:56.113Z,99914.09
2023-05-01T04:09:27.555Z,99913.56
2023-05-01T04:09:59.066Z,99913.81
2023-05-01T04:10:30.563Z,99917.63
2023-05-01T04:11:02.036Z,99924.94
2023-05-01T04:11:33.509Z,99921.16
2023-05-01T04:12:05.013Z,99917.91
2023-05-01T04:12:36.495Z,99911.91
2023-05-01T04:13:07.967Z,99921.97
2023-05-01T04:13:39.536Z,99921.41
2023-05-01T04:14:11.046Z,99920.88
2023-05-01T04:14:42.527Z,99921.41
2023-05-01T04:15:15.546Z,99924.69
2023-05-01T04:15:47.348Z,99919.78
2023-05-01T04:16:19.000Z,99915.44
2023-05-01T04:16:50.569Z,99917.63
2023-05-01T04:17:22.055Z,99916.00
2023-05-01T04:17:53.518Z,99915.19
2023-05-01T04:18:25.075Z,99910.84
2023-05-01T04:18:56.764Z,99917.88
2023-05-01T04:19:28.201Z,99908.66
2023-05-01T04:19:59.684Z,99912.47
2023-05-01T04:20:31.171Z,99911.09
2023-05-01T04:21:02.746Z,99917.63
2023-05-01T04:21:34.297Z,99916.00
2023-05-01T04:22:05.795Z,99916.53
2023-05-01T04:22:37.385Z,99913.00
2023-05-01T04:23:09.027Z,99907.84
2023-05-01T04:23:40.584Z,99912.47
2023-05-01T04:24:12.087Z,99917.06
2023-05-01T04:24:43.601Z,99910.03
2023-05-01T04:25:15.142Z,99907.84
2023-05-01T04:25:46.530Z,99912.19
2023-05-01T04:26:18.108Z,99910.84
2023-05-01T04:26:49.590Z,99919.50
2023-05-01T04:27:21.216Z,99911.66
2023-05-01T04:27:52.736Z,99915.44
2023-05-01T04:28:24.302Z,99912.72
2023-05-01T04:28:55.875Z,99910.03
2023-05-01T04:29:27.429Z,99912.47
2023-05-01T04:29:59.351Z,99914.63
2023-05-01T04:30:30.926Z,99916.53
2023-05-01T04:31:02.428Z,99907.31
2023-05-01T04:31:33.937Z,99911.38
2023-05-01T04:32:05.578Z,99910.28
2023-05-01T04:32:37.137Z,99914.09
2023-05-01T04:33:08.629Z,99907.84
2023-05-01T04:33:40.111Z,99910.00
2023-05-01T04:34:11.885Z,99905.66
2023-05-01T04:34:43.295Z,99905.41
2023-05-01T04:35:14.711Z,99907.56
2023-05-01T04:35:46.274Z,99908.41
2023-05-01T04:36:17.876Z,99905.94
2023-05-01T04:36:49.273Z,99909.22
2023-05-01T04:37:20.692Z,99905.13
2023-05-01T04:37:52.100Z,99901.06
2023-05-01T04:38:23.581Z,99904.59
2023-05-01T04:38:55.241Z,99904.31
2023-05-01T04:39:26.758Z,99910.03
2023-05-01T04:39:58.335Z,99906.22
2023-05-01T04:40:29.941Z,99904.03
2023-05-01T04:41:01.442Z,99904.59
2023-05-01T04:41:32.859Z,99898.63
2023-05-01T04:42:04.337Z,99899.16
2023-05-01T04:42:35.836Z,99901.06
2023-05-01T04:43:07.370Z,99896.44
2023-05-01T04:43:38.846Z,99901.59
2023-05-01T04:44:10.305Z,99900.78
2023-05-01T04:44:42.082Z,99902.97
2023-05-01T04:45:13.556Z,99898.06
2023-05-01T04:45:44.988Z,99902.97
2023-05-01T04:46:16.574Z,99896.44
2023-05-01T04:46:48.237Z,99902.16
2023-05-01T04:47:19.688Z,99901.06
2023-05-01T04:47:51.169Z,99904.84
2023-05-01T04:48:22.812Z,99896.72
2023-05-01T04:48:54.276Z,99905.94
2023-05-01T04:49:25.789Z,99898.88
2023-05-01T04:49:57.674Z,99903.22
2023-05-01T04:50:29.383Z,99901.31
2023-05-01T04:51:00.926Z,99896.97
2023-05-01T04:51:32.406Z,99895.09
2023-05-01T04:52:03.873Z,99901.59
2023-05-01T04:52:35.328Z,99902.13
2023-05-01T04:53:06.760Z,99901.88
2023-05-01T04:53:38.240Z,99897.25
2023-05-01T04:54:09.685Z,99899.97
2023-05-01T04:54:41.186Z,99908.94
2023-05-01T04:55:12.849Z,99904.84
2023-05-01T04:55:44.304Z,99903.50
2023-05-01T04:56:15.725Z,99904.84
2023-05-01T04:56:47.149Z,99905.41
2023-05-01T04:57:18.598Z,99898.63
2023-05-01T04:57:50.054Z,99909.75
2023-05-01T04:58:21.535Z,99902.41
2023-05-01T04:58:53.014Z,99901.59
2023-05-01T04:59:24.538Z,99901.31
2023-05-01T04:59:56.303Z,99899.44
2023-05-01T05:00:28.235Z,99906.47
2023-05-01T05:00:59.668Z,99904.84
2023-05-01T05:01:31.232Z,99903.22
2023-05-01T05:02:02.814Z,99901.31
2023-05-01T05:02:34.396Z,99894.53
2023-05-01T05:03:06.012Z,99901.06
2023-05-01T05:03:37.691Z,99899.97
2023-05-01T05:04:09.458Z,99905.94
2023-05-01T05:04:41.005Z,99893.72
2023-05-01T05:05:12.473Z,99896.16
2023-05-01T05:05:43.896Z,99900.25
2023-05-01T05:06:15.401Z,99894.00
2023-05-01T05:06:46.921Z,99895.91
2023-05-01T05:07:18.400Z,99898.63
2023-05-01T05:07:49.798Z,99902.13
2023-05-01T05:08:21.506Z,99899.69
2023-05-01T05:08:52.932Z,99896.44
2023-05-01T05:09:24.351Z,99900.50
2023-05-01T05:09:56.071Z,99896.97
2023-05-01T05:10:27.604Z,99896.72
2023-05-01T05:10:59.144Z,99903.50
2023-05-01T05:11:30.618Z,99902.41
2023-05-01T05:12:02.050Z,99899.16
2023-05-01T05:12:33.471Z,99892.66
2023-05-01T05:13:04.917Z,99894.28
2023-05-01T05:13:36.522Z,99889.38
2023-05-01T05:14:07.916Z,99899.16
2023-05-01T05:14:39.296Z,99897.53
2023-05-01T05:15:10.708Z,99901.34
2023-05-01T05:15:42.114Z,99898.63
2023-05-01T05:16:13.575Z,99897.81
2023-05-01T05:16:45.045Z,99899.97
2023-05-01T05:17:16.460Z,99892.66
2023-05-01T05:17:47.962Z,99902.41
2023-05-01T05:18:19.411Z,99894.00
2023-05-01T05:18:51.065Z,99897.00
2023-05-01T05:19:22.634Z,99899.69
2023-05-01T05:19:54.267Z,99895.63
2023-05-01T05:20:25.937Z,99898.06
2023-05-01T05:20:57.346Z,99895.34
2023-05-01T05:21:28.745Z,99895.34
2023-05-01T05:22:00.212Z,99897.53
2023-05-01T05:22:31.599Z,99895.34
2023-05-01T05:23:03.049Z,99896.16
2023-05-01T05:23:34.505Z,99899.16
2023-05-01T05:24:05.880Z,99896.97
2023-05-01T05:24:37.338Z,99903.50
2023-05-01T05:25:08.788Z,99899.16
2023-05-01T05:25:40.265Z,99899.97
2023-05-01T05:26:11.754Z,99890.75
2023-05-01T05:26:43.165Z,99892.38
2023-05-01T05:27:14.590Z,99895.09
2023-05-01T05:27:46.027Z,99898.88
2023-05-01T05:28:17.471Z,99902.69
2023-05-01T05:28:49.049Z,99902.41
2023-05-01T05:29:20.426Z,99898.88
2023-05-01T05:29:51.818Z,99895.09
2023-05-01T05:30:23.255Z,99896.44
2023-05-01T05:30:54.684Z,99894.53
2023-05-01T05:31:26.168Z,99896.97
2023-05-01T05:31:57.670Z,99896.19
2023-05-01T05:32:29.203Z,99899.69
2023-05-01T05:33:00.755Z,99897.78
2023-05-01T05:33:32.237Z,99903.78
2023-05-01T05:34:03.650Z,99896.72
2023-05-01T05:34:35.063Z,99894.81
2023-05-01T05:35:06.498Z,99890.19
2023-05-01T05:35:37.995Z,99892.91
2023-05-01T05:36:09.397Z,99895.63
2023-05-01T05:36:40.792Z,99898.88
2023-05-01T05:37:12.189Z,99893.47
2023-05-01T05:37:45.345Z,99890.47
2023-05-01T05:38:17.546Z,99897.53
2023-05-01T05:38:49.017Z,99892.38
2023-05-01T05:39:20.450Z,99899.16
2023-05-01T05:39:51.877Z,99894.53
2023-05-01T05:40:23.276Z,99892.38
2023-05-01T05:40:54.720Z,99901.06
2023-05-01T05:41:26.197Z,99893.47
2023-05-01T05:41:57.772Z,99898.63
2023-05-01T05:42:29.180Z,99897.25
2023-05-01T05:43:00.633Z,99894.81
2023-05-01T05:43:32.128Z,99895.63
2023-05-01T05:44:03.524Z,99891.81
2023-05-01T05:44:34.931Z,99894.28
2023-05-01T05:45:06.360Z,99895.34
2023-05-01T05:45:37.825Z,99891.56
2023-05-01T05:46:09.277Z,99894.81
2023-05-01T05:46:41.007Z,99898.63
2023-05-01T05:47:12.446Z,99895.34
2023-05-01T05:47:43.894Z,99887.22
2023-05-01T05:48:15.408Z,99896.44
2023-05-01T05:48:46.966Z,99895.09
2023-05-01T05:49:18.384Z,99901.06
2023-05-01T05:49:49.900Z,99893.72
2023-05-01T05:50:21.320Z,99897.00
2023-05-01T05:50:52.751Z,99899.16
2023-05-01T05:51:24.151Z,99897.25
2023-05-01T05:51:55.577Z,99896.72
2023-05-01T05:52:27.015Z,99894.28
2023-05-01T05:52:58.445Z,99894.81
2023-05-01T05:53:29.940Z,99887.50
2023-05-01T05:54:01.352Z,99892.66
2023-05-01T05:54:32.798Z,99891.56
2023-05-01T05:55:04.195Z,99889.41
2023-05-01T05:55:35.605Z,99887.75
2023-05-01T05:56:06.988Z,99890.47
2023-05-01T05:56:38.438Z,99886.13
2023-05-01T05:57:09.817Z,99891.28
2023-05-01T05:57:41.279Z,99890.47
2023-05-01T05:58:12.686Z,99885.88
2023-05-01T05:58:44.170Z,99893.19
2023-05-01T05:59:17.304Z,99894.56
2023-05-01T05:59:49.036Z,99888.31
2023-05-01T06:00:20.451Z,99888.84
2023-05-01T06:00:51.873Z,99885.59
2023-05-01T06:01:23.297Z,99893.19
2023-05-01T06:01:54.734Z,99884.25
2023-05-01T06:02:26.272Z,99888.31
2023-05-01T06:02:57.962Z,99884.25
2023-05-01T06:03:29.664Z,99890.75
2023-05-01T06:04:01.244Z,99888.84
2023-05-01T06:04:32.644Z,99881.78
2023-05-01T06:05:04.180Z,99887.75
2023-05-01T06:05:35.710Z,99890.47
2023-05-01T06:06:07.360Z,99884.50